Time;durP1;ratioP1;P1;durP2;ratioP2;P2;SDS_P1;SDS_P2;PMS_P1;PMS_P2;Temp;Humidity;BMP_temperature;BMP_pressure;BME280_temperature;BME280_humidity;BME280_pressure;Samples;Min_cycle;Max_cycle;Signal;HPM_P1;HPM_P2
2021/03/19 00:01:55;;;;;;;;;;;22.40;38.30;;;;;;1598671;72;1165;-66
2021/03/19 00:03:57;;;;;;;;;;;22.40;38.20;;;;;;1600291;72;827;-66
2021/03/19 00:05:58;;;;;;;;;;;22.40;38.10;;;;;;1603383;72;769;-67
2021/03/19 00:08:00;;;;;;;;;;;22.40;38.00;;;;;;1598895;72;835;-66
2021/03/19 00:10:02;;;;;;;;;;;22.50;38.10;;;;;;1607178;72;774;-68
2021/03/19 00:12:04;;;;;;;;;;;22.50;37.90;;;;;;1602280;72;1221;-65
2021/03/19 00:14:06;;;;;;;;;;;22.50;37.90;;;;;;1600510;72;1941;-65
2021/03/19 00:16:08;;;;;;;;;;;22.50;38.00;;;;;;1596377;72;778;-65
2021/03/19 00:18:10;;;;;;;;;;;22.50;38.30;;;;;;1599842;72;841;-64
2021/03/19 00:20:12;;;;;;;;;;;22.40;38.30;;;;;;1599641;72;800;-65
2021/03/19 00:22:14;;;;;;;;;;;22.50;38.40;;;;;;1597077;72;1154;-65
2021/03/19 00:24:16;;;;;;;;;;;22.40;38.30;;;;;;1595646;72;656;-63
2021/03/19 00:26:18;;;;;;;;;;;22.40;38.40;;;;;;1602104;72;796;-64
2021/03/19 00:28:20;;;;;;;;;;;22.40;38.50;;;;;;1599015;72;808;-66
2021/03/19 00:30:22;;;;;;;;;;;22.40;38.50;;;;;;1596839;72;792;-64
2021/03/19 00:32:23;;;;;;;;;;;22.40;38.50;;;;;;1603532;72;1169;-64
2021/03/19 00:34:25;;;;;;;;;;;22.50;38.70;;;;;;1608449;72;1926;-65
2021/03/19 00:36:27;;;;;;;;;;;22.50;38.70;;;;;;1614451;72;798;-64
2021/03/19 00:38:29;;;;;;;;;;;22.40;38.80;;;;;;1609590;72;763;-66
2021/03/19 00:40:31;;;;;;;;;;;22.40;39.10;;;;;;1605128;72;811;-65
2021/03/19 00:42:33;;;;;;;;;;;22.50;39.00;;;;;;1603962;72;1101;-65
2021/03/19 00:44:35;;;;;;;;;;;22.40;38.90;;;;;;1603686;72;759;-69
2021/03/19 00:46:37;;;;;;;;;;;22.50;38.80;;;;;;1601562;72;655;-65
2021/03/19 00:48:39;;;;;;;;;;;22.60;38.60;;;;;;1597856;72;807;-65
2021/03/19 00:50:41;;;;;;;;;;;22.60;38.40;;;;;;1599173;72;1162;-66
2021/03/19 00:52:43;;;;;;;;;;;22.70;38.40;;;;;;1603077;72;801;-66
2021/03/19 00:54:45;;;;;;;;;;;22.70;38.10;;;;;;1596138;72;1941;-67
2021/03/19 00:56:47;;;;;;;;;;;22.80;38.10;;;;;;1606227;72;737;-64
2021/03/19 00:58:49;;;;;;;;;;;22.80;38.20;;;;;;1605727;72;715;-65
2021/03/19 01:00:51;;;;;;;;;;;22.70;38.30;;;;;;1597005;72;1116;-64
2021/03/19 01:02:53;;;;;;;;;;;22.70;38.10;;;;;;1602318;72;768;-64
2021/03/19 01:04:54;;;;;;;;;;;22.80;38.30;;;;;;1601316;72;764;-69
2021/03/19 01:06:56;;;;;;;;;;;22.70;38.40;;;;;;1598891;72;633;-65
2021/03/19 01:08:58;;;;;;;;;;;22.70;38.40;;;;;;1602004;72;753;-66
2021/03/19 01:11:00;;;;;;;;;;;22.70;38.20;;;;;;1601216;72;1214;-69
2021/03/19 01:13:02;;;;;;;;;;;22.60;38.20;;;;;;1598785;72;823;-65
2021/03/19 01:15:05;;;;;;;;;;;22.70;38.40;;;;;;1604035;72;1937;-65
2021/03/19 01:17:07;;;;;;;;;;;22.70;38.30;;;;;;1606856;72;800;-67
2021/03/19 01:19:09;;;;;;;;;;;22.80;38.30;;;;;;1600314;72;810;-66
2021/03/19 01:21:10;;;;;;;;;;;22.60;38.10;;;;;;1603557;72;1154;-65
2021/03/19 01:23:12;;;;;;;;;;;22.70;38.20;;;;;;1594846;72;791;-65
2021/03/19 01:25:15;;;;;;;;;;;22.70;38.30;;;;;;1602482;72;797;-65
2021/03/19 01:27:17;;;;;;;;;;;22.70;38.30;;;;;;1598115;72;811;-63
2021/03/19 01:29:19;;;;;;;;;;;22.80;38.20;;;;;;1593537;72;821;-65
2021/03/19 01:31:21;;;;;;;;;;;22.70;38.10;;;;;;1602421;72;1155;-65
2021/03/19 01:33:23;;;;;;;;;;;22.70;38.30;;;;;;1596216;72;797;-62
2021/03/19 01:35:24;;;;;;;;;;;22.70;38.40;;;;;;1602398;72;1936;-64
2021/03/19 01:37:27;;;;;;;;;;;22.60;38.30;;;;;;1602626;72;777;-65
2021/03/19 01:39:28;;;;;;;;;;;22.60;38.40;;;;;;1596188;72;766;-65
2021/03/19 01:41:30;;;;;;;;;;;22.60;38.40;;;;;;1604723;72;1174;-65
2021/03/19 01:43:49;;;;;;;;;;;22.60;38.40;;;;;;1605228;72;814;-66
2021/03/19 01:46:09;;;;;;;;;;;22.60;38.70;;;;;;1604810;72;800;-65
2021/03/19 01:48:28;;;;;;;;;;;22.60;38.40;;;;;;1598827;72;631;-65
2021/03/19 01:50:48;;;;;;;;;;;22.50;38.50;;;;;;1596009;72;680;-66
2021/03/19 01:53:08;;;;;;;;;;;22.50;38.50;;;;;;1601987;72;787;-65
2021/03/19 01:55:28;;;;;;;;;;;22.50;38.50;;;;;;1598084;72;1957;-66
2021/03/19 01:57:47;;;;;;;;;;;22.50;38.70;;;;;;1595054;72;728;-66
2021/03/19 02:00:07;;;;;;;;;;;22.60;38.70;;;;;;1599716;72;767;-67
2021/03/19 02:02:27;;;;;;;;;;;22.50;38.70;;;;;;1599663;72;1135;-68
2021/03/19 02:04:47;;;;;;;;;;;22.50;38.80;;;;;;1599238;72;748;-66
2021/03/19 02:07:06;;;;;;;;;;;22.50;38.70;;;;;;1604995;72;671;-66
2021/03/19 02:09:26;;;;;;;;;;;22.50;38.60;;;;;;1600043;72;702;-65
2021/03/19 02:11:46;;;;;;;;;;;22.50;38.60;;;;;;1601114;72;1219;-65
2021/03/19 02:14:06;;;;;;;;;;;22.60;38.60;;;;;;1604392;72;804;-67
2021/03/19 02:16:25;;;;;;;;;;;22.60;38.50;;;;;;1603286;72;1935;-65
2021/03/19 02:18:45;;;;;;;;;;;22.60;38.50;;;;;;1603567;72;745;-66
2021/03/19 02:21:05;;;;;;;;;;;22.60;38.50;;;;;;1600278;72;1163;-67
2021/03/19 02:23:25;;;;;;;;;;;22.60;38.40;;;;;;1595586;72;808;-66
2021/03/19 02:25:44;;;;;;;;;;;22.60;38.40;;;;;;1602485;72;687;-67
2021/03/19 02:28:04;;;;;;;;;;;22.50;38.40;;;;;;1606263;72;724;-65
2021/03/19 02:30:24;;;;;;;;;;;22.50;38.50;;;;;;1603903;72;754;-65
2021/03/19 02:32:26;;;;;;;;;;;22.50;38.40;;;;;;1603610;72;1172;-65
2021/03/19 02:34:33;;;;;;;;;;;22.50;38.50;;;;;;1598370;72;748;-65
2021/03/19 02:36:35;;;;;;;;;;;22.50;38.40;;;;;;1602051;72;1938;-65
2021/03/19 02:38:37;;;;;;;;;;;22.60;38.40;;;;;;1598220;72;776;-65
2021/03/19 02:40:39;;;;;;;;;;;22.50;38.30;;;;;;1606256;72;1187;-64
2021/03/19 02:42:40;;;;;;;;;;;22.60;38.30;;;;;;1611850;72;814;-64
2021/03/19 02:44:42;;;;;;;;;;;22.60;38.30;;;;;;1602647;72;741;-64
2021/03/19 02:46:44;;;;;;;;;;;22.60;38.30;;;;;;1605290;72;744;-62
2021/03/19 02:48:46;;;;;;;;;;;22.60;38.40;;;;;;1607225;72;757;-65
2021/03/19 02:50:48;;;;;;;;;;;22.60;38.40;;;;;;1598110;72;1171;-66
2021/03/19 02:52:50;;;;;;;;;;;22.60;38.40;;;;;;1604985;72;812;-63
2021/03/19 02:54:52;;;;;;;;;;;22.50;38.60;;;;;;1604260;72;1932;-64
2021/03/19 02:56:54;;;;;;;;;;;22.50;38.70;;;;;;1598318;72;805;-64
2021/03/19 02:58:56;;;;;;;;;;;22.50;38.60;;;;;;1605527;72;768;-65
2021/03/19 03:00:58;;;;;;;;;;;22.50;38.50;;;;;;1604190;72;1157;-64
2021/03/19 03:03:00;;;;;;;;;;;22.50;38.50;;;;;;1601933;72;687;-65
2021/03/19 03:05:01;;;;;;;;;;;22.50;38.50;;;;;;1609244;72;740;-65
2021/03/19 03:07:03;;;;;;;;;;;22.50;38.40;;;;;;1602700;72;783;-64
2021/03/19 03:09:06;;;;;;;;;;;22.50;38.50;;;;;;1608085;72;741;-66
2021/03/19 03:11:08;;;;;;;;;;;22.50;38.50;;;;;;1617173;72;1224;-65
2021/03/19 03:13:11;;;;;;;;;;;22.50;38.40;;;;;;1616214;72;755;-65
2021/03/19 03:15:14;;;;;;;;;;;22.50;38.30;;;;;;1604190;72;1938;-64
2021/03/19 03:17:16;;;;;;;;;;;22.50;38.30;;;;;;1611801;72;748;-63
2021/03/19 03:19:19;;;;;;;;;;;22.50;38.40;;;;;;1607899;72;783;-67
2021/03/19 03:21:20;;;;;;;;;;;22.50;38.40;;;;;;1613696;72;1235;-66
2021/03/19 03:23:23;;;;;;;;;;;22.60;38.10;;;;;;1606169;72;740;-67
2021/03/19 03:25:25;;;;;;;;;;;22.60;38.00;;;;;;1604839;72;881;-65
2021/03/19 03:27:27;;;;;;;;;;;22.80;38.00;;;;;;1613247;72;779;-65
2021/03/19 03:29:29;;;;;;;;;;;22.70;38.10;;;;;;1614161;72;737;-65
2021/03/19 03:31:31;;;;;;;;;;;22.70;38.10;;;;;;1600902;72;1235;-65
2021/03/19 03:33:33;;;;;;;;;;;22.70;38.00;;;;;;1643657;70;221811;-55
2021/03/19 03:35:35;;;;;;;;;;;22.70;38.10;;;;;;1642288;70;1951;-54
2021/03/19 03:37:36;;;;;;;;;;;22.60;38.10;;;;;;1662274;70;791;-57
2021/03/19 03:39:38;;;;;;;;;;;22.60;38.20;;;;;;1667710;70;742;-55
2021/03/19 03:41:40;;;;;;;;;;;22.60;38.20;;;;;;1649050;70;1251;-58
2021/03/19 03:43:42;;;;;;;;;;;22.50;38.20;;;;;;1629305;71;762;-57
2021/03/19 03:45:44;;;;;;;;;;;22.50;38.30;;;;;;1636026;71;766;-57
2021/03/19 03:47:46;;;;;;;;;;;22.50;38.30;;;;;;1639283;71;787;-58
2021/03/19 03:49:48;;;;;;;;;;;22.50;38.40;;;;;;1637274;71;766;-58
2021/03/19 03:51:50;;;;;;;;;;;22.50;38.50;;;;;;1643580;71;1159;-55
2021/03/19 03:53:53;;;;;;;;;;;22.50;38.50;;;;;;1636787;71;755;-54
2021/03/19 03:55:54;;;;;;;;;;;22.50;38.50;;;;;;1636002;71;1927;-58
2021/03/19 03:57:56;;;;;;;;;;;22.50;38.40;;;;;;1637801;71;730;-58
2021/03/19 03:59:58;;;;;;;;;;;22.50;38.40;;;;;;1637144;71;759;-56
2021/03/19 04:02:02;;;;;;;;;;;22.50;38.40;;;;;;1628964;71;1152;-54
2021/03/19 04:04:04;;;;;;;;;;;22.60;38.50;;;;;;1634816;71;1080;-59
2021/03/19 04:06:06;;;;;;;;;;;22.60;38.40;;;;;;1637358;71;761;-58
2021/03/19 04:08:08;;;;;;;;;;;22.60;38.30;;;;;;1639055;71;755;-58
2021/03/19 04:10:10;;;;;;;;;;;22.60;38.30;;;;;;1639024;71;768;-59
2021/03/19 04:12:12;;;;;;;;;;;22.60;38.40;;;;;;1634068;71;1226;-59
2021/03/19 04:14:14;;;;;;;;;;;22.60;38.40;;;;;;1637151;71;797;-59
2021/03/19 04:16:16;;;;;;;;;;;22.70;38.50;;;;;;1634679;71;1939;-59
2021/03/19 04:18:18;;;;;;;;;;;22.70;38.50;;;;;;1633651;71;739;-54
2021/03/19 04:20:20;;;;;;;;;;;22.70;38.40;;;;;;1635051;71;783;-58
2021/03/19 04:22:22;;;;;;;;;;;22.70;38.40;;;;;;1626989;71;1141;-59
2021/03/19 04:24:24;;;;;;;;;;;22.80;38.40;;;;;;1636671;71;638;-57
2021/03/19 04:26:27;;;;;;;;;;;22.70;38.30;;;;;;1639417;71;756;-55
2021/03/19 04:28:31;;;;;;;;;;;22.80;38.30;;;;;;1636260;71;1639;-58
2021/03/19 04:30:35;;;;;;;;;;;22.80;38.60;;;;;;1633424;71;746;-59
2021/03/19 04:32:37;;;;;;;;;;;22.80;38.50;;;;;;1623369;71;1140;-59
2021/03/19 04:34:39;;;;;;;;;;;22.90;38.50;;;;;;1633780;71;734;-58
2021/03/19 04:36:43;;;;;;;;;;;22.80;38.40;;;;;;1633199;71;1932;-58
2021/03/19 04:38:45;;;;;;;;;;;22.80;38.40;;;;;;1633436;71;752;-58
2021/03/19 04:40:47;;;;;;;;;;;22.90;38.40;;;;;;1640573;71;694;-58
2021/03/19 04:42:49;;;;;;;;;;;22.90;38.40;;;;;;1634297;71;1150;-58
2021/03/19 04:44:51;;;;;;;;;;;22.90;38.40;;;;;;1634594;71;744;-55
2021/03/19 04:46:53;;;;;;;;;;;22.90;38.30;;;;;;1628825;71;741;-54
2021/03/19 04:48:55;;;;;;;;;;;22.90;38.30;;;;;;1635024;71;780;-58
2021/03/19 04:50:57;;;;;;;;;;;23.00;38.20;;;;;;1637009;71;722;-59
2021/03/19 04:52:59;;;;;;;;;;;22.90;38.10;;;;;;1639140;71;1074;-58
2021/03/19 04:55:01;;;;;;;;;;;22.90;38.00;;;;;;1641920;71;732;-58
2021/03/19 04:57:03;;;;;;;;;;;22.90;38.10;;;;;;1635025;71;1918;-57
2021/03/19 04:59:05;;;;;;;;;;;22.90;38.00;;;;;;1639771;71;750;-59
2021/03/19 05:01:07;;;;;;;;;;;23.00;37.90;;;;;;1635670;71;803;-58
2021/03/19 05:03:09;;;;;;;;;;;22.90;38.00;;;;;;1643088;71;1175;-56
2021/03/19 05:05:15;;;;;;;;;;;23.00;38.00;;;;;;1636693;71;798;-56
2021/03/19 05:07:17;;;;;;;;;;;23.00;38.10;;;;;;1640047;71;1077;-59
2021/03/19 05:09:19;;;;;;;;;;;23.00;38.10;;;;;;1635642;71;759;-58
2021/03/19 05:11:21;;;;;;;;;;;23.00;38.00;;;;;;1636875;71;1233;-59
2021/03/19 05:13:23;;;;;;;;;;;23.00;38.00;;;;;;1618291;71;642;-56
2021/03/19 05:15:25;;;;;;;;;;;23.00;37.90;;;;;;1629860;71;816;-56
2021/03/19 05:17:30;;;;;;;;;;;23.00;37.90;;;;;;1636337;71;1939;-55
2021/03/19 05:19:30;;;;;;;;;;;23.00;37.80;;;;;;1634119;71;2034;-58
2021/03/19 05:21:32;;;;;;;;;;;23.00;37.80;;;;;;1634849;71;1174;-60
2021/03/19 05:23:35;;;;;;;;;;;23.00;37.80;;;;;;1634683;71;731;-60
2021/03/19 05:25:37;;;;;;;;;;;23.00;37.80;;;;;;1634429;71;747;-55
2021/03/19 05:27:39;;;;;;;;;;;23.00;37.80;;;;;;1635634;71;646;-55
2021/03/19 05:29:41;;;;;;;;;;;23.00;37.80;;;;;;1636235;71;769;-59
2021/03/19 05:31:43;;;;;;;;;;;23.00;37.90;;;;;;1635121;71;1150;-58
2021/03/19 05:33:49;;;;;;;;;;;23.00;37.80;;;;;;1635216;71;794;-56
2021/03/19 05:35:51;;;;;;;;;;;23.10;37.90;;;;;;1637091;71;1931;-59
2021/03/19 05:37:53;;;;;;;;;;;23.10;37.90;;;;;;1625953;71;755;-57
2021/03/19 05:39:55;;;;;;;;;;;23.10;37.90;;;;;;1630070;71;686;-58
2021/03/19 05:41:57;;;;;;;;;;;23.10;38.00;;;;;;1635378;71;1096;-55
2021/03/19 05:44:03;;;;;;;;;;;23.20;38.10;;;;;;1632645;71;856;-57
2021/03/19 05:46:07;;;;;;;;;;;23.10;38.00;;;;;;1638317;71;735;-58
2021/03/19 05:48:09;;;;;;;;;;;23.10;37.90;;;;;;1636294;71;778;-56
2021/03/19 05:50:12;;;;;;;;;;;23.10;38.00;;;;;;1636638;71;764;-56
2021/03/19 05:52:16;;;;;;;;;;;23.20;38.10;;;;;;1638521;71;1473;-57
2021/03/19 05:54:22;;;;;;;;;;;23.10;37.80;;;;;;1638520;71;1042;-55
2021/03/19 05:56:26;;;;;;;;;;;23.20;37.80;;;;;;1636508;71;1927;-57
2021/03/19 05:58:28;;;;;;;;;;;23.20;37.90;;;;;;1634272;71;1545;-56
2021/03/19 06:00:29;;;;;;;;;;;23.20;38.00;;;;;;1622567;71;688;-54
2021/03/19 06:02:35;;;;;;;;;;;23.20;37.90;;;;;;1629382;71;1148;-53
2021/03/19 06:04:37;;;;;;;;;;;23.20;38.00;;;;;;1638210;71;734;-57
2021/03/19 06:06:45;;;;;;;;;;;23.20;37.80;;;;;;1632085;71;757;-57
2021/03/19 06:08:48;;;;;;;;;;;23.20;38.00;;;;;;1633262;71;732;-57
2021/03/19 06:10:50;;;;;;;;;;;23.20;38.00;;;;;;1636612;71;734;-55
2021/03/19 06:12:53;;;;;;;;;;;23.20;37.90;;;;;;1625645;71;1231;-54
2021/03/19 06:14:56;;;;;;;;;;;23.20;37.90;;;;;;1636020;71;1488;-57
2021/03/19 06:16:59;;;;;;;;;;;23.20;37.90;;;;;;1636523;71;1929;-53
2021/03/19 06:19:03;;;;;;;;;;;23.20;38.10;;;;;;1635471;71;806;-57
2021/03/19 06:21:06;;;;;;;;;;;23.20;38.30;;;;;;1635785;71;1320;-54
2021/03/19 06:23:12;;;;;;;;;;;23.30;38.50;;;;;;1634613;71;1174;-58
2021/03/19 06:25:19;;;;;;;;;;;23.30;38.30;;;;;;1634887;71;1493;-57
2021/03/19 06:27:22;;;;;;;;;;;23.30;38.20;;;;;;1634808;71;748;-59
2021/03/19 06:29:27;;;;;;;;;;;23.30;38.10;;;;;;1636318;71;758;-58
2021/03/19 06:31:30;;;;;;;;;;;23.30;38.30;;;;;;1638298;71;1151;-58
2021/03/19 06:33:32;;;;;;;;;;;23.40;38.20;;;;;;1635305;71;801;-55
2021/03/19 06:35:35;;;;;;;;;;;23.40;38.20;;;;;;1636213;71;806;-57
2021/03/19 06:37:41;;;;;;;;;;;23.40;38.00;;;;;;1626915;71;1921;-58
2021/03/19 06:39:47;;;;;;;;;;;23.40;37.30;;;;;;1634534;71;737;-56
2021/03/19 06:42:06;;;;;;;;;;;23.40;37.10;;;;;;1637243;71;1179;-57
2021/03/19 06:44:12;;;;;;;;;;;23.40;36.70;;;;;;1635088;71;682;-56
2021/03/19 06:46:21;;;;;;;;;;;23.40;36.50;;;;;;1625649;71;804;-59
2021/03/19 06:48:27;;;;;;;;;;;23.40;36.50;;;;;;1634801;71;804;-59
2021/03/19 06:50:30;;;;;;;;;;;23.30;36.30;;;;;;1633024;71;752;-58
2021/03/19 06:52:32;;;;;;;;;;;23.20;36.20;;;;;;1634406;71;1163;-56
2021/03/19 06:54:48;;;;;;;;;;;23.30;36.00;;;;;;1629920;71;749;-59
2021/03/19 06:57:06;;;;;;;;;;;23.20;35.90;;;;;;1624603;71;1931;-58
2021/03/19 06:59:18;;;;;;;;;;;23.20;36.00;;;;;;1622965;71;795;-59
2021/03/19 07:01:24;;;;;;;;;;;23.20;36.10;;;;;;1632163;71;1171;-59
2021/03/19 07:03:34;;;;;;;;;;;23.30;36.10;;;;;;1636701;71;742;-59
2021/03/19 07:05:46;;;;;;;;;;;23.30;36.00;;;;;;1643982;71;1508;-54
2021/03/19 07:07:56;;;;;;;;;;;23.30;35.90;;;;;;1630003;71;742;-58
2021/03/19 07:09:59;;;;;;;;;;;23.40;36.20;;;;;;1637068;71;829;-57
2021/03/19 07:12:03;;;;;;;;;;;23.30;35.80;;;;;;1641643;71;1184;-54
2021/03/19 07:14:09;;;;;;;;;;;23.30;35.80;;;;;;1637014;71;786;-58
2021/03/19 07:16:15;;;;;;;;;;;23.30;35.70;;;;;;1632897;71;1034;-58
2021/03/19 07:18:18;;;;;;;;;;;23.20;35.60;;;;;;1639767;71;769;-53
2021/03/19 07:20:28;;;;;;;;;;;23.30;35.70;;;;;;1631162;71;613;-55
2021/03/19 07:22:31;;;;;;;;;;;23.20;35.50;;;;;;1642477;71;1255;-58
2021/03/19 07:24:43;;;;;;;;;;;23.20;35.50;;;;;;1637519;71;1595;-58
2021/03/19 07:26:52;;;;;;;;;;;23.20;35.40;;;;;;1639162;71;739;-58
2021/03/19 07:28:55;;;;;;;;;;;23.20;35.40;;;;;;1641830;71;836;-57
2021/03/19 07:30:59;;;;;;;;;;;23.10;35.30;;;;;;1641264;71;1454;-59
2021/03/19 07:33:02;;;;;;;;;;;23.20;34.80;;;;;;1641583;71;1150;-58
2021/03/19 07:35:06;;;;;;;;;;;23.20;31.50;;;;;;1640995;71;909;-60
2021/03/19 07:37:12;;;;;;;;;;;23.30;30.40;;;;;;1639370;71;1939;-59
2021/03/19 07:39:33;;;;;;;;;;;23.30;30.20;;;;;;1637254;71;803;-58
2021/03/19 07:41:40;;;;;;;;;;;23.20;29.10;;;;;;1632929;71;1168;-56
2021/03/19 07:43:49;;;;;;;;;;;23.20;28.50;;;;;;1634589;71;758;-57
2021/03/19 07:45:59;;;;;;;;;;;23.20;27.90;;;;;;1635649;71;777;-59
2021/03/19 07:48:11;;;;;;;;;;;23.20;27.40;;;;;;1644706;71;1074;-59
2021/03/19 07:50:32;;;;;;;;;;;23.10;27.30;;;;;;1637235;71;799;-60
2021/03/19 07:52:41;;;;;;;;;;;23.10;27.00;;;;;;1627301;71;1162;-54
2021/03/19 07:54:47;;;;;;;;;;;23.10;27.00;;;;;;1638309;71;1597;-60
2021/03/19 07:56:53;;;;;;;;;;;23.10;26.50;;;;;;1633131;71;1925;-59
2021/03/19 07:58:57;;;;;;;;;;;23.10;26.40;;;;;;1636542;71;751;-58
2021/03/19 08:01:17;;;;;;;;;;;23.10;26.20;;;;;;1632924;71;747;-56
2021/03/19 08:03:27;;;;;;;;;;;23.10;26.00;;;;;;1636087;71;1141;-55
2021/03/19 08:05:30;;;;;;;;;;;23.10;26.00;;;;;;1639970;71;942;-54
2021/03/19 08:07:50;;;;;;;;;;;23.00;25.70;;;;;;1636755;71;773;-59
2021/03/19 08:10:08;;;;;;;;;;;22.90;25.80;;;;;;1631016;71;754;-59
2021/03/19 08:12:18;;;;;;;;;;;23.00;27.00;;;;;;1635675;71;1692;-57
2021/03/19 08:14:24;;;;;;;;;;;23.00;27.10;;;;;;1649120;71;1213;-58
2021/03/19 08:16:28;;;;;;;;;;;22.90;27.50;;;;;;1642168;71;755;-57
2021/03/19 08:18:31;;;;;;;;;;;23.00;27.60;;;;;;1637548;71;1934;-56
2021/03/19 08:20:40;;;;;;;;;;;23.00;27.70;;;;;;1628865;71;763;-59
2021/03/19 08:22:46;;;;;;;;;;;23.00;27.70;;;;;;1635969;71;1289;-58
2021/03/19 08:24:49;;;;;;;;;;;23.00;27.80;;;;;;1621916;71;1553;-58
2021/03/19 08:26:56;;;;;;;;;;;23.00;27.50;;;;;;1635568;71;772;-59
2021/03/19 08:29:05;;;;;;;;;;;22.90;27.30;;;;;;1634142;71;640;-59
2021/03/19 08:31:11;;;;;;;;;;;23.00;27.50;;;;;;1635179;71;1708;-58
2021/03/19 08:33:18;;;;;;;;;;;23.00;28.00;;;;;;1640951;70;1151;-59
2021/03/19 08:35:21;;;;;;;;;;;23.00;27.90;;;;;;1635705;71;1488;-59
2021/03/19 08:37:38;;;;;;;;;;;22.90;28.00;;;;;;1635718;71;1927;-55
2021/03/19 08:39:44;;;;;;;;;;;23.00;27.80;;;;;;1631852;71;830;-58
2021/03/19 08:41:49;;;;;;;;;;;23.00;27.80;;;;;;1628695;71;1187;-58
2021/03/19 08:43:52;;;;;;;;;;;23.00;27.70;;;;;;1636504;71;808;-55
2021/03/19 08:45:55;;;;;;;;;;;23.00;26.90;;;;;;1634570;71;702;-58
2021/03/19 08:47:58;;;;;;;;;;;23.00;27.30;;;;;;1637159;71;989;-59
2021/03/19 08:50:00;;;;;;;;;;;22.90;27.00;;;;;;1627791;71;739;-57
2021/03/19 08:52:04;;;;;;;;;;;22.90;27.10;;;;;;1637795;71;1119;-58
2021/03/19 08:54:16;;;;;;;;;;;22.90;27.30;;;;;;1635815;71;1800;-59
2021/03/19 08:56:23;;;;;;;;;;;22.90;27.10;;;;;;1635164;71;720;-57
2021/03/19 08:58:32;;;;;;;;;;;22.80;27.40;;;;;;1636516;71;1943;-57
2021/03/19 09:00:36;;;;;;;;;;;22.90;27.30;;;;;;1632690;71;753;-59
2021/03/19 09:02:42;;;;;;;;;;;22.90;28.00;;;;;;1631707;71;1169;-58
2021/03/19 09:04:54;;;;;;;;;;;22.90;28.10;;;;;;1635412;71;738;-59
2021/03/19 09:07:14;;;;;;;;;;;22.80;26.70;;;;;;1630305;71;740;-59
2021/03/19 09:09:20;;;;;;;;;;;22.80;26.50;;;;;;1606491;72;911;-59
2021/03/19 09:11:23;;;;;;;;;;;22.70;25.80;;;;;;1571559;74;1489;-59
2021/03/19 09:13:25;;;;;;;;;;;22.70;26.50;;;;;;1579441;74;798;-59
2021/03/19 09:15:28;;;;;;;;;;;22.70;26.80;;;;;;1577914;73;800;-58
2021/03/19 09:17:49;;;;;;;;;;;22.60;27.10;;;;;;1597528;72;1940;-59
2021/03/19 09:19:55;;;;;;;;;;;22.70;27.30;;;;;;1576463;74;1188;-59
2021/03/19 09:22:15;;;;;;;;;;;22.70;27.10;;;;;;1605867;72;1176;-56
2021/03/19 09:24:17;;;;;;;;;;;22.80;26.30;;;;;;1599437;72;677;-55
2021/03/19 09:26:24;;;;;;;;;;;22.70;26.10;;;;;;1577106;74;746;-58
2021/03/19 09:28:32;;;;;;;;;;;22.70;25.80;;;;;;1577140;74;1139;-59
2021/03/19 09:30:36;;;;;;;;;;;22.60;25.70;;;;;;1581876;74;775;-55
2021/03/19 09:32:39;;;;;;;;;;;22.60;25.80;;;;;;1592835;71;217898;-70
2021/03/19 09:34:45;;;;;;;;;;;22.60;26.70;;;;;;1583655;73;693;-70
2021/03/19 09:36:52;;;;;;;;;;;22.70;26.00;;;;;;1582580;73;978;-70
2021/03/19 09:38:54;;;;;;;;;;;22.60;25.70;;;;;;1594105;73;1933;-70
2021/03/19 09:40:56;;;;;;;;;;;22.60;25.50;;;;;;1562818;74;798;-70
2021/03/19 09:42:58;;;;;;;;;;;22.50;25.70;;;;;;1572212;75;1259;-71
2021/03/19 09:45:02;;;;;;;;;;;22.50;25.40;;;;;;1611520;72;742;-71
2021/03/19 09:47:04;;;;;;;;;;;22.40;25.40;;;;;;1609813;72;739;-70
2021/03/19 09:49:08;;;;;;;;;;;22.40;24.70;;;;;;1578122;72;220077;-60
2021/03/19 09:51:11;;;;;;;;;;;22.30;24.70;;;;;;1566293;74;717;-60
2021/03/19 09:53:17;;;;;;;;;;;22.30;25.90;;;;;;1586698;73;1320;-59
2021/03/19 09:55:20;;;;;;;;;;;22.20;25.10;;;;;;1589801;73;711;-59
2021/03/19 09:57:24;;;;;;;;;;;22.10;25.60;;;;;;1581571;73;1937;-60
2021/03/19 09:59:26;;;;;;;;;;;22.30;26.00;;;;;;1590880;74;789;-60
2021/03/19 10:01:30;;;;;;;;;;;22.30;26.10;;;;;;1588932;73;1195;-60
2021/03/19 10:03:42;;;;;;;;;;;22.30;25.60;;;;;;1577868;74;755;-59
2021/03/19 10:05:46;;;;;;;;;;;22.20;26.00;;;;;;1587326;74;1034;-60
2021/03/19 10:07:49;;;;;;;;;;;22.20;25.90;;;;;;1568600;74;756;-60
2021/03/19 10:09:55;;;;;;;;;;;22.20;25.80;;;;;;1575340;74;1023;-57
2021/03/19 10:12:04;;;;;;;;;;;22.30;25.10;;;;;;1578566;74;1167;-59
2021/03/19 10:14:13;;;;;;;;;;;22.30;25.10;;;;;;1502582;76;1023;-57
2021/03/19 10:16:22;;;;;;;;;;;22.20;24.90;;;;;;1550609;74;931;-59
2021/03/19 10:18:26;;;;;;;;;;;22.20;25.00;;;;;;1559312;75;1946;-59
2021/03/19 10:20:29;;;;;;;;;;;22.10;25.40;;;;;;1566127;75;785;-59
2021/03/19 10:22:32;;;;;;;;;;;22.10;25.40;;;;;;1538250;76;1171;-60
2021/03/19 10:24:34;;;;;;;;;;;22.10;25.30;;;;;;1558741;75;811;-58
2021/03/19 10:26:50;;;;;;;;;;;22.00;25.50;;;;;;1586983;73;761;-59
2021/03/19 10:28:54;;;;;;;;;;;22.00;25.30;;;;;;1580821;73;798;-59
2021/03/19 10:30:57;;;;;;;;;;;22.00;26.00;;;;;;1578132;73;1052;-59
2021/03/19 10:33:01;;;;;;;;;;;22.00;26.10;;;;;;1580554;73;1485;-59
2021/03/19 10:35:06;;;;;;;;;;;22.00;25.60;;;;;;1584921;73;1499;-60
2021/03/19 10:37:09;;;;;;;;;;;22.00;25.50;;;;;;1583711;74;1594;-59
2021/03/19 10:39:13;;;;;;;;;;;22.00;25.60;;;;;;1579070;73;1938;-56
2021/03/19 10:41:29;;;;;;;;;;;22.00;25.60;;;;;;1565935;74;1354;-59
2021/03/19 10:43:35;;;;;;;;;;;22.00;25.50;;;;;;1576454;74;663;-58
2021/03/19 10:45:38;;;;;;;;;;;22.10;25.70;;;;;;1585756;74;797;-59
2021/03/19 10:47:45;;;;;;;;;;;22.10;25.60;;;;;;1587064;73;1126;-58
2021/03/19 10:49:48;;;;;;;;;;;22.10;25.80;;;;;;1585134;74;722;-58
2021/03/19 10:51:52;;;;;;;;;;;22.20;26.70;;;;;;1586499;73;1166;-59
2021/03/19 10:53:55;;;;;;;;;;;22.10;25.90;;;;;;1583449;74;798;-58
2021/03/19 10:55:57;;;;;;;;;;;22.20;25.70;;;;;;1586096;73;780;-59
2021/03/19 10:58:19;;;;;;;;;;;22.20;25.80;;;;;;1555236;75;1933;-59
2021/03/19 11:00:32;;;;;;;;;;;22.20;25.40;;;;;;1586574;74;743;-59
2021/03/19 11:02:35;;;;;;;;;;;22.20;25.70;;;;;;1588625;74;1283;-59
2021/03/19 11:04:37;;;;;;;;;;;22.20;26.00;;;;;;1555221;75;756;-59
2021/03/19 11:06:40;;;;;;;;;;;22.20;25.90;;;;;;1587887;73;690;-60
2021/03/19 11:08:42;;;;;;;;;;;22.20;25.40;;;;;;1583944;74;670;-59
2021/03/19 11:10:47;;;;;;;;;;;22.10;25.90;;;;;;1589697;74;804;-59
2021/03/19 11:12:57;;;;;;;;;;;22.20;25.70;;;;;;1581490;74;1703;-59
2021/03/19 11:14:59;;;;;;;;;;;22.10;25.90;;;;;;1590184;73;738;-59
2021/03/19 11:17:16;;;;;;;;;;;22.20;25.60;;;;;;1587661;73;735;-59
2021/03/19 11:19:19;;;;;;;;;;;22.20;25.60;;;;;;1572718;74;1932;-59
2021/03/19 11:21:23;;;;;;;;;;;22.20;25.70;;;;;;1582996;74;1156;-60
2021/03/19 11:23:26;;;;;;;;;;;22.20;25.70;;;;;;1578748;74;729;-60
2021/03/19 11:25:29;;;;;;;;;;;22.20;26.00;;;;;;1586900;73;724;-60
2021/03/19 11:27:31;;;;;;;;;;;22.10;25.90;;;;;;1571962;74;1540;-60
2021/03/19 11:29:34;;;;;;;;;;;22.10;25.50;;;;;;1580467;74;749;-60
2021/03/19 11:31:38;;;;;;;;;;;22.00;25.50;;;;;;1585526;74;1149;-60
2021/03/19 11:33:56;;;;;;;;;;;22.10;25.80;;;;;;1576318;73;1338;-60
2021/03/19 11:36:13;;;;;;;;;;;22.10;26.10;;;;;;1587134;74;798;-60
2021/03/19 11:38:15;;;;;;;;;;;22.10;25.70;;;;;;1577590;74;1926;-60
2021/03/19 11:40:19;;;;;;;;;;;22.10;25.90;;;;;;1579766;74;748;-60
2021/03/19 11:42:22;;;;;;;;;;;22.00;25.70;;;;;;1585562;73;1123;-60
2021/03/19 11:44:23;;;;;;;;;;;22.00;25.50;;;;;;1585284;74;787;-59
2021/03/19 11:46:26;;;;;;;;;;;21.90;25.50;;;;;;1568145;74;763;-60
2021/03/19 11:48:31;;;;;;;;;;;22.00;25.70;;;;;;1581480;74;763;-59
2021/03/19 11:50:34;;;;;;;;;;;21.90;25.60;;;;;;1571979;73;749;-61
2021/03/19 11:52:36;;;;;;;;;;;21.90;25.50;;;;;;1582807;74;1154;-60
2021/03/19 11:54:38;;;;;;;;;;;21.80;25.40;;;;;;1588336;73;742;-59
2021/03/19 11:56:40;;;;;;;;;;;21.80;25.50;;;;;;1584829;74;764;-60
2021/03/19 11:58:42;;;;;;;;;;;21.70;25.30;;;;;;1588170;74;1949;-60
2021/03/19 12:00:44;;;;;;;;;;;21.70;25.60;;;;;;1575706;74;933;-60
2021/03/19 12:02:48;;;;;;;;;;;21.70;25.50;;;;;;1586141;73;1242;-59
2021/03/19 12:04:49;;;;;;;;;;;21.80;25.60;;;;;;1563510;74;1365;-60
2021/03/19 12:06:52;;;;;;;;;;;21.70;25.40;;;;;;1558841;74;657;-61
2021/03/19 12:08:54;;;;;;;;;;;21.70;25.50;;;;;;1563699;74;738;-60
2021/03/19 12:10:55;;;;;;;;;;;21.70;25.00;;;;;;1565762;74;727;-60
2021/03/19 12:12:58;;;;;;;;;;;21.70;25.00;;;;;;1568940;74;1176;-60
2021/03/19 12:15:00;;;;;;;;;;;21.70;24.80;;;;;;1562906;74;732;-60
2021/03/19 12:17:02;;;;;;;;;;;21.70;24.90;;;;;;1567522;74;808;-60
2021/03/19 12:19:03;;;;;;;;;;;21.70;24.50;;;;;;1557502;74;1948;-59
2021/03/19 12:21:05;;;;;;;;;;;21.70;24.50;;;;;;1569932;74;754;-57
2021/03/19 12:23:07;;;;;;;;;;;21.60;24.60;;;;;;1545059;75;1214;-60
2021/03/19 12:25:11;;;;;;;;;;;21.50;24.40;;;;;;1542117;76;777;-60
2021/03/19 12:27:14;;;;;;;;;;;21.50;24.20;;;;;;1573973;74;1787;-61